sensor_id;sensor_type;location;lat;lon;timestamp;P1;durP1;ratioP1;P2;durP2;ratioP2
36725;SDS011;44936;52.086;5.150;2022-09-03T00:00:15;0.50;;;0.40;;
36725;SDS011;44936;52.086;5.150;2022-09-03T00:02:46;2.17;;;0.70;;
36725;SDS011;44936;52.086;5.150;2022-09-03T00:05:19;3.35;;;0.70;;
36725;SDS011;44936;52.086;5.150;2022-09-03T00:10:20;2.17;;;0.50;;
36725;SDS011;44936;52.086;5.150;2022-09-03T00:12:46;0.52;;;0.52;;
36725;SDS011;44936;52.086;5.150;2022-09-03T00:15:16;0.55;;;0.55;;
36725;SDS011;44936;52.086;5.150;2022-09-03T00:17:46;0.52;;;0.50;;
36725;SDS011;44936;52.086;5.150;2022-09-03T00:20:18;0.50;;;0.47;;
36725;SDS011;44936;52.086;5.150;2022-09-03T00:22:46;0.50;;;0.50;;
36725;SDS011;44936;52.086;5.150;2022-09-03T00:25:13;1.40;;;0.68;;
36725;SDS011;44936;52.086;5.150;2022-09-03T00:27:39;0.77;;;0.50;;
36725;SDS011;44936;52.086;5.150;2022-09-03T00:30:08;0.93;;;0.90;;
36725;SDS011;44936;52.086;5.150;2022-09-03T00:35:05;0.88;;;0.60;;
36725;SDS011;44936;52.086;5.150;2022-09-03T00:37:33;0.63;;;0.63;;
36725;SDS011;44936;52.086;5.150;2022-09-03T00:39:58;0.50;;;0.40;;
36725;SDS011;44936;52.086;5.150;2022-09-03T00:45:09;1.55;;;0.70;;
36725;SDS011;44936;52.086;5.150;2022-09-03T00:50:16;0.40;;;0.37;;
36725;SDS011;44936;52.086;5.150;2022-09-03T01:00:31;0.88;;;0.50;;
36725;SDS011;44936;52.086;5.150;2022-09-03T01:03:06;0.70;;;0.70;;
36725;SDS011;44936;52.086;5.150;2022-09-03T01:08:29;6.38;;;0.80;;
36725;SDS011;44936;52.086;5.150;2022-09-03T01:11:08;0.70;;;0.70;;
36725;SDS011;44936;52.086;5.150;2022-09-03T01:13:36;2.55;;;0.60;;
36725;SDS011;44936;52.086;5.150;2022-09-03T01:16:14;1.83;;;0.50;;
36725;SDS011;44936;52.086;5.150;2022-09-03T01:18:57;0.60;;;0.47;;
36725;SDS011;44936;52.086;5.150;2022-09-03T01:21:31;0.47;;;0.47;;
36725;SDS011;44936;52.086;5.150;2022-09-03T01:24:25;0.50;;;0.50;;
36725;SDS011;44936;52.086;5.150;2022-09-03T01:29:31;0.98;;;0.80;;
36725;SDS011;44936;52.086;5.150;2022-09-03T01:37:33;0.57;;;0.50;;
36725;SDS011;44936;52.086;5.150;2022-09-03T01:50:12;0.57;;;0.40;;
36725;SDS011;44936;52.086;5.150;2022-09-03T02:00:11;2.00;;;0.60;;
36725;SDS011;44936;52.086;5.150;2022-09-03T02:02:38;0.60;;;0.50;;
36725;SDS011;44936;52.086;5.150;2022-09-03T02:07:36;0.65;;;0.55;;
36725;SDS011;44936;52.086;5.150;2022-09-03T02:10:03;0.93;;;0.70;;
36725;SDS011;44936;52.086;5.150;2022-09-03T02:12:29;0.60;;;0.60;;
36725;SDS011;44936;52.086;5.150;2022-09-03T02:14:57;3.20;;;0.68;;
36725;SDS011;44936;52.086;5.150;2022-09-03T02:17:22;1.13;;;0.60;;
36725;SDS011;44936;52.086;5.150;2022-09-03T02:19:48;0.80;;;0.50;;
36725;SDS011;44936;52.086;5.150;2022-09-03T02:22:14;1.05;;;0.70;;
36725;SDS011;44936;52.086;5.150;2022-09-03T02:24:39;1.60;;;0.43;;
36725;SDS011;44936;52.086;5.150;2022-09-03T02:27:04;1.50;;;0.60;;
36725;SDS011;44936;52.086;5.150;2022-09-03T02:29:30;0.60;;;0.40;;
36725;SDS011;44936;52.086;5.150;2022-09-03T02:31:55;3.03;;;0.83;;
36725;SDS011;44936;52.086;5.150;2022-09-03T02:34:21;1.42;;;0.60;;
36725;SDS011;44936;52.086;5.150;2022-09-03T02:36:47;0.77;;;0.77;;
36725;SDS011;44936;52.086;5.150;2022-09-03T02:39:13;0.80;;;0.80;;
36725;SDS011;44936;52.086;5.150;2022-09-03T02:41:38;1.00;;;0.65;;
36725;SDS011;44936;52.086;5.150;2022-09-03T02:44:06;1.17;;;0.65;;
36725;SDS011;44936;52.086;5.150;2022-09-03T02:49:01;1.00;;;0.75;;
36725;SDS011;44936;52.086;5.150;2022-09-03T02:51:30;1.77;;;0.63;;
36725;SDS011;44936;52.086;5.150;2022-09-03T02:53:55;0.68;;;0.63;;
36725;SDS011;44936;52.086;5.150;2022-09-03T02:56:20;0.57;;;0.57;;
36725;SDS011;44936;52.086;5.150;2022-09-03T02:58:51;0.63;;;0.30;;
36725;SDS011;44936;52.086;5.150;2022-09-03T03:01:16;0.40;;;0.40;;
36725;SDS011;44936;52.086;5.150;2022-09-03T03:03:43;1.90;;;0.80;;
36725;SDS011;44936;52.086;5.150;2022-09-03T03:06:08;1.00;;;0.50;;
36725;SDS011;44936;52.086;5.150;2022-09-03T03:08:33;2.08;;;0.65;;
36725;SDS011;44936;52.086;5.150;2022-09-03T03:10:59;3.73;;;0.70;;
36725;SDS011;44936;52.086;5.150;2022-09-03T03:13:28;0.40;;;0.40;;
36725;SDS011;44936;52.086;5.150;2022-09-03T03:15:57;0.50;;;0.50;;
36725;SDS011;44936;52.086;5.150;2022-09-03T03:18:22;1.25;;;0.70;;
36725;SDS011;44936;52.086;5.150;2022-09-03T03:20:48;2.03;;;0.70;;
36725;SDS011;44936;52.086;5.150;2022-09-03T03:23:13;2.38;;;0.63;;
36725;SDS011;44936;52.086;5.150;2022-09-03T03:25:38;1.20;;;0.93;;
36725;SDS011;44936;52.086;5.150;2022-09-03T03:28:04;0.57;;;0.57;;
36725;SDS011;44936;52.086;5.150;2022-09-03T03:30:29;3.28;;;0.85;;
36725;SDS011;44936;52.086;5.150;2022-09-03T03:32:55;0.85;;;0.75;;
36725;SDS011;44936;52.086;5.150;2022-09-03T03:35:20;0.97;;;0.80;;
36725;SDS011;44936;52.086;5.150;2022-09-03T03:37:46;1.30;;;1.02;;
36725;SDS011;44936;52.086;5.150;2022-09-03T03:40:11;1.00;;;0.85;;
36725;SDS011;44936;52.086;5.150;2022-09-03T03:42:36;1.38;;;0.63;;
36725;SDS011;44936;52.086;5.150;2022-09-03T03:45:02;0.68;;;0.63;;
36725;SDS011;44936;52.086;5.150;2022-09-03T03:47:28;0.75;;;0.65;;
36725;SDS011;44936;52.086;5.150;2022-09-03T03:49:55;0.75;;;0.50;;
36725;SDS011;44936;52.086;5.150;2022-09-03T03:52:21;0.65;;;0.60;;
36725;SDS011;44936;52.086;5.150;2022-09-03T03:54:46;2.77;;;0.73;;
36725;SDS011;44936;52.086;5.150;2022-09-03T03:57:14;0.43;;;0.40;;
36725;SDS011;44936;52.086;5.150;2022-09-03T03:59:39;1.85;;;0.70;;
36725;SDS011;44936;52.086;5.150;2022-09-03T04:02:04;1.60;;;0.90;;
36725;SDS011;44936;52.086;5.150;2022-09-03T04:04:29;2.67;;;0.70;;
36725;SDS011;44936;52.086;5.150;2022-09-03T04:06:55;2.42;;;1.02;;
36725;SDS011;44936;52.086;5.150;2022-09-03T04:09:20;0.63;;;0.60;;
36725;SDS011;44936;52.086;5.150;2022-09-03T04:11:46;0.80;;;0.45;;
36725;SDS011;44936;52.086;5.150;2022-09-03T04:14:11;0.70;;;0.60;;
36725;SDS011;44936;52.086;5.150;2022-09-03T04:16:36;0.53;;;0.53;;
36725;SDS011;44936;52.086;5.150;2022-09-03T04:19:01;0.67;;;0.60;;
36725;SDS011;44936;52.086;5.150;2022-09-03T04:21:28;0.50;;;0.50;;
36725;SDS011;44936;52.086;5.150;2022-09-03T04:23:53;0.90;;;0.45;;
36725;SDS011;44936;52.086;5.150;2022-09-03T04:26:20;1.25;;;0.75;;
36725;SDS011;44936;52.086;5.150;2022-09-03T04:28:46;0.73;;;0.40;;
36725;SDS011;44936;52.086;5.150;2022-09-03T04:31:12;0.75;;;0.52;;
36725;SDS011;44936;52.086;5.150;2022-09-03T04:33:38;0.75;;;0.75;;
36725;SDS011;44936;52.086;5.150;2022-09-03T04:36:16;0.70;;;0.60;;
36725;SDS011;44936;52.086;5.150;2022-09-03T04:38:42;2.10;;;0.70;;
36725;SDS011;44936;52.086;5.150;2022-09-03T04:41:09;1.48;;;0.70;;
36725;SDS011;44936;52.086;5.150;2022-09-03T04:43:35;0.50;;;0.50;;
36725;SDS011;44936;52.086;5.150;2022-09-03T04:46:01;0.90;;;0.73;;
36725;SDS011;44936;52.086;5.150;2022-09-03T04:48:27;0.73;;;0.57;;
36725;SDS011;44936;52.086;5.150;2022-09-03T04:50:53;0.73;;;0.52;;
36725;SDS011;44936;52.086;5.150;2022-09-03T04:53:19;0.70;;;0.68;;
36725;SDS011;44936;52.086;5.150;2022-09-03T04:55:44;0.77;;;0.60;;
36725;SDS011;44936;52.086;5.150;2022-09-03T04:58:09;0.80;;;0.73;;
36725;SDS011;44936;52.086;5.150;2022-09-03T05:00:35;0.77;;;0.60;;
36725;SDS011;44936;52.086;5.150;2022-09-03T05:03:00;0.60;;;0.60;;
36725;SDS011;44936;52.086;5.150;2022-09-03T05:05:27;0.63;;;0.50;;
36725;SDS011;44936;52.086;5.150;2022-09-03T05:07:52;0.60;;;0.60;;
36725;SDS011;44936;52.086;5.150;2022-09-03T05:10:17;1.10;;;0.52;;
36725;SDS011;44936;52.086;5.150;2022-09-03T05:12:46;1.75;;;0.63;;
36725;SDS011;44936;52.086;5.150;2022-09-03T05:15:12;2.90;;;0.68;;
36725;SDS011;44936;52.086;5.150;2022-09-03T05:17:40;1.02;;;0.50;;
36725;SDS011;44936;52.086;5.150;2022-09-03T05:20:05;2.70;;;0.67;;
36725;SDS011;44936;52.086;5.150;2022-09-03T05:22:32;1.35;;;0.80;;
36725;SDS011;44936;52.086;5.150;2022-09-03T05:24:58;1.63;;;0.50;;
36725;SDS011;44936;52.086;5.150;2022-09-03T05:27:23;0.73;;;0.57;;
36725;SDS011;44936;52.086;5.150;2022-09-03T05:29:48;1.60;;;0.50;;
36725;SDS011;44936;52.086;5.150;2022-09-03T05:32:13;1.88;;;0.70;;
36725;SDS011;44936;52.086;5.150;2022-09-03T05:34:41;1.75;;;0.75;;
36725;SDS011;44936;52.086;5.150;2022-09-03T05:37:06;0.77;;;0.50;;
36725;SDS011;44936;52.086;5.150;2022-09-03T05:39:31;1.77;;;0.60;;
36725;SDS011;44936;52.086;5.150;2022-09-03T05:41:57;0.87;;;0.70;;
36725;SDS011;44936;52.086;5.150;2022-09-03T05:44:22;0.47;;;0.40;;
36725;SDS011;44936;52.086;5.150;2022-09-03T05:46:47;0.98;;;0.80;;
36725;SDS011;44936;52.086;5.150;2022-09-03T05:49:13;1.40;;;0.50;;
36725;SDS011;44936;52.086;5.150;2022-09-03T05:51:38;1.98;;;0.60;;
36725;SDS011;44936;52.086;5.150;2022-09-03T05:54:04;2.67;;;0.95;;
36725;SDS011;44936;52.086;5.150;2022-09-03T05:56:30;1.00;;;0.60;;
36725;SDS011;44936;52.086;5.150;2022-09-03T05:58:56;1.15;;;0.85;;
36725;SDS011;44936;52.086;5.150;2022-09-03T06:01:25;1.77;;;0.70;;
36725;SDS011;44936;52.086;5.150;2022-09-03T06:03:54;1.65;;;0.80;;
36725;SDS011;44936;52.086;5.150;2022-09-03T06:06:20;1.40;;;0.50;;
36725;SDS011;44936;52.086;5.150;2022-09-03T06:08:55;1.33;;;0.85;;
36725;SDS011;44936;52.086;5.150;2022-09-03T06:11:22;3.65;;;0.60;;
36725;SDS011;44936;52.086;5.150;2022-09-03T06:13:50;1.70;;;1.00;;
36725;SDS011;44936;52.086;5.150;2022-09-03T06:16:16;2.60;;;0.90;;
36725;SDS011;44936;52.086;5.150;2022-09-03T06:18:41;4.90;;;0.70;;
36725;SDS011;44936;52.086;5.150;2022-09-03T06:21:06;0.93;;;0.60;;
36725;SDS011;44936;52.086;5.150;2022-09-03T06:23:32;1.20;;;0.85;;
36725;SDS011;44936;52.086;5.150;2022-09-03T06:26:02;0.77;;;0.47;;
36725;SDS011;44936;52.086;5.150;2022-09-03T06:28:27;0.75;;;0.65;;
36725;SDS011;44936;52.086;5.150;2022-09-03T06:30:56;0.82;;;0.38;;
36725;SDS011;44936;52.086;5.150;2022-09-03T06:33:21;0.98;;;0.80;;
36725;SDS011;44936;52.086;5.150;2022-09-03T06:35:51;0.77;;;0.65;;
36725;SDS011;44936;52.086;5.150;2022-09-03T06:38:16;1.98;;;0.80;;
36725;SDS011;44936;52.086;5.150;2022-09-03T06:40:43;1.75;;;0.77;;
36725;SDS011;44936;52.086;5.150;2022-09-03T06:43:11;2.08;;;0.65;;
36725;SDS011;44936;52.086;5.150;2022-09-03T06:45:36;2.15;;;0.70;;
36725;SDS011;44936;52.086;5.150;2022-09-03T06:48:02;1.10;;;0.80;;
36725;SDS011;44936;52.086;5.150;2022-09-03T06:50:27;0.43;;;0.40;;
36725;SDS011;44936;52.086;5.150;2022-09-03T06:52:52;0.40;;;0.40;;
36725;SDS011;44936;52.086;5.150;2022-09-03T06:55:20;2.95;;;0.75;;
36725;SDS011;44936;52.086;5.150;2022-09-03T06:57:46;4.68;;;1.25;;
36725;SDS011;44936;52.086;5.150;2022-09-03T07:00:12;0.80;;;0.70;;
36725;SDS011;44936;52.086;5.150;2022-09-03T07:02:38;0.88;;;0.60;;
36725;SDS011;44936;52.086;5.150;2022-09-03T07:05:05;1.58;;;0.40;;
36725;SDS011;44936;52.086;5.150;2022-09-03T07:07:30;1.42;;;0.70;;
36725;SDS011;44936;52.086;5.150;2022-09-03T07:09:55;1.60;;;0.80;;
36725;SDS011;44936;52.086;5.150;2022-09-03T07:12:21;0.80;;;0.60;;
36725;SDS011;44936;52.086;5.150;2022-09-03T07:14:46;0.60;;;0.50;;
36725;SDS011;44936;52.086;5.150;2022-09-03T07:17:11;0.40;;;0.40;;
36725;SDS011;44936;52.086;5.150;2022-09-03T07:19:36;0.50;;;0.50;;
36725;SDS011;44936;52.086;5.150;2022-09-03T07:22:02;0.60;;;0.60;;
36725;SDS011;44936;52.086;5.150;2022-09-03T07:24:27;1.67;;;0.73;;
36725;SDS011;44936;52.086;5.150;2022-09-03T07:26:53;3.17;;;0.52;;
36725;SDS011;44936;52.086;5.150;2022-09-03T07:29:18;2.00;;;0.55;;
36725;SDS011;44936;52.086;5.150;2022-09-03T07:31:45;1.35;;;0.38;;
36725;SDS011;44936;52.086;5.150;2022-09-03T07:34:10;0.57;;;0.50;;
36725;SDS011;44936;52.086;5.150;2022-09-03T07:36:40;0.30;;;0.28;;
36725;SDS011;44936;52.086;5.150;2022-09-03T07:39:07;0.30;;;0.30;;
36725;SDS011;44936;52.086;5.150;2022-09-03T07:41:32;0.30;;;0.30;;
36725;SDS011;44936;52.086;5.150;2022-09-03T07:43:58;0.90;;;0.50;;
36725;SDS011;44936;52.086;5.150;2022-09-03T07:46:24;0.60;;;0.40;;
36725;SDS011;44936;52.086;5.150;2022-09-03T07:48:50;0.85;;;0.50;;
36725;SDS011;44936;52.086;5.150;2022-09-03T07:51:17;0.40;;;0.40;;
36725;SDS011;44936;52.086;5.150;2022-09-03T07:53:46;2.85;;;0.40;;
36725;SDS011;44936;52.086;5.150;2022-09-03T07:56:12;4.47;;;0.35;;
36725;SDS011;44936;52.086;5.150;2022-09-03T07:58:38;0.82;;;0.47;;
36725;SDS011;44936;52.086;5.150;2022-09-03T08:01:05;0.93;;;0.40;;
36725;SDS011;44936;52.086;5.150;2022-09-03T08:03:32;1.20;;;0.50;;
36725;SDS011;44936;52.086;5.150;2022-09-03T08:05:59;0.75;;;0.43;;
36725;SDS011;44936;52.086;5.150;2022-09-03T08:08:25;0.65;;;0.55;;
36725;SDS011;44936;52.086;5.150;2022-09-03T08:10:51;0.60;;;0.60;;
36725;SDS011;44936;52.086;5.150;2022-09-03T08:13:17;0.30;;;0.30;;
36725;SDS011;44936;52.086;5.150;2022-09-03T08:15:43;1.70;;;0.40;;
36725;SDS011;44936;52.086;5.150;2022-09-03T08:18:17;3.92;;;0.80;;
36725;SDS011;44936;52.086;5.150;2022-09-03T08:20:42;1.37;;;0.40;;
36725;SDS011;44936;52.086;5.150;2022-09-03T08:23:07;1.37;;;0.50;;
36725;SDS011;44936;52.086;5.150;2022-09-03T08:25:32;0.47;;;0.47;;
36725;SDS011;44936;52.086;5.150;2022-09-03T08:27:57;2.63;;;0.60;;
36725;SDS011;44936;52.086;5.150;2022-09-03T08:30:23;5.35;;;1.33;;
36725;SDS011;44936;52.086;5.150;2022-09-03T08:32:49;1.77;;;0.52;;
36725;SDS011;44936;52.086;5.150;2022-09-03T08:35:14;0.20;;;0.20;;
36725;SDS011;44936;52.086;5.150;2022-09-03T08:37:39;0.47;;;0.37;;
36725;SDS011;44936;52.086;5.150;2022-09-03T08:40:04;1.07;;;0.40;;
36725;SDS011;44936;52.086;5.150;2022-09-03T08:45:04;0.20;;;0.20;;
36725;SDS011;44936;52.086;5.150;2022-09-03T08:47:32;0.40;;;0.40;;
36725;SDS011;44936;52.086;5.150;2022-09-03T08:49:59;0.43;;;0.43;;
36725;SDS011;44936;52.086;5.150;2022-09-03T08:52:31;1.23;;;0.55;;
36725;SDS011;44936;52.086;5.150;2022-09-03T08:55:13;1.33;;;0.50;;
36725;SDS011;44936;52.086;5.150;2022-09-03T08:57:41;1.20;;;0.45;;
36725;SDS011;44936;52.086;5.150;2022-09-03T09:00:07;3.30;;;1.42;;
36725;SDS011;44936;52.086;5.150;2022-09-03T09:05:06;0.45;;;0.43;;
36725;SDS011;44936;52.086;5.150;2022-09-03T09:07:41;1.23;;;0.40;;
36725;SDS011;44936;52.086;5.150;2022-09-03T09:10:10;0.45;;;0.35;;
36725;SDS011;44936;52.086;5.150;2022-09-03T09:15:25;0.77;;;0.30;;
36725;SDS011;44936;52.086;5.150;2022-09-03T09:17:59;0.30;;;0.30;;
36725;SDS011;44936;52.086;5.150;2022-09-03T09:20:30;0.30;;;0.30;;
36725;SDS011;44936;52.086;5.150;2022-09-03T09:23:06;1.83;;;0.30;;
36725;SDS011;44936;52.086;5.150;2022-09-03T09:25:32;1.27;;;0.57;;
36725;SDS011;44936;52.086;5.150;2022-09-03T09:28:15;1.00;;;0.45;;
36725;SDS011;44936;52.086;5.150;2022-09-03T09:30:41;2.60;;;0.50;;
36725;SDS011;44936;52.086;5.150;2022-09-03T09:33:06;0.55;;;0.30;;
36725;SDS011;44936;52.086;5.150;2022-09-03T09:35:31;2.40;;;0.40;;
36725;SDS011;44936;52.086;5.150;2022-09-03T09:37:57;1.13;;;0.60;;
36725;SDS011;44936;52.086;5.150;2022-09-03T09:40:34;0.32;;;0.32;;
36725;SDS011;44936;52.086;5.150;2022-09-03T09:43:03;0.80;;;0.40;;
36725;SDS011;44936;52.086;5.150;2022-09-03T09:45:28;2.50;;;0.30;;
36725;SDS011;44936;52.086;5.150;2022-09-03T09:47:55;0.40;;;0.40;;
36725;SDS011;44936;52.086;5.150;2022-09-03T09:50:21;1.35;;;0.40;;
36725;SDS011;44936;52.086;5.150;2022-09-03T09:52:47;1.25;;;0.60;;
36725;SDS011;44936;52.086;5.150;2022-09-03T09:55:17;0.80;;;0.60;;
36725;SDS011;44936;52.086;5.150;2022-09-03T09:57:43;0.52;;;0.35;;
36725;SDS011;44936;52.086;5.150;2022-09-03T10:00:12;0.28;;;0.28;;
36725;SDS011;44936;52.086;5.150;2022-09-03T10:02:38;0.93;;;0.40;;
36725;SDS011;44936;52.086;5.150;2022-09-03T10:07:37;3.17;;;0.68;;
36725;SDS011;44936;52.086;5.150;2022-09-03T10:12:30;0.70;;;0.37;;
36725;SDS011;44936;52.086;5.150;2022-09-03T10:14:56;1.92;;;0.40;;
36725;SDS011;44936;52.086;5.150;2022-09-03T10:17:26;0.38;;;0.38;;
36725;SDS011;44936;52.086;5.150;2022-09-03T10:20:06;2.25;;;0.60;;
36725;SDS011;44936;52.086;5.150;2022-09-03T10:22:55;0.40;;;0.40;;
36725;SDS011;44936;52.086;5.150;2022-09-03T10:25:21;0.30;;;0.30;;
36725;SDS011;44936;52.086;5.150;2022-09-03T10:27:50;0.30;;;0.30;;
36725;SDS011;44936;52.086;5.150;2022-09-03T10:30:16;0.60;;;0.25;;
36725;SDS011;44936;52.086;5.150;2022-09-03T10:33:00;0.70;;;0.30;;
36725;SDS011;44936;52.086;5.150;2022-09-03T10:35:29;0.75;;;0.30;;
36725;SDS011;44936;52.086;5.150;2022-09-03T10:40:40;1.10;;;0.30;;
36725;SDS011;44936;52.086;5.150;2022-09-03T10:56:12;0.93;;;0.50;;
36725;SDS011;44936;52.086;5.150;2022-09-03T11:01:26;1.02;;;0.40;;
36725;SDS011;44936;52.086;5.150;2022-09-03T11:06:27;0.80;;;0.52;;
36725;SDS011;44936;52.086;5.150;2022-09-03T11:09:04;1.15;;;0.45;;
36725;SDS011;44936;52.086;5.150;2022-09-03T11:11:37;1.55;;;0.50;;
36725;SDS011;44936;52.086;5.150;2022-09-03T11:14:06;0.47;;;0.30;;
36725;SDS011;44936;52.086;5.150;2022-09-03T11:16:33;0.47;;;0.20;;
36725;SDS011;44936;52.086;5.150;2022-09-03T11:19:03;2.00;;;0.30;;
36725;SDS011;44936;52.086;5.150;2022-09-03T11:21:30;1.05;;;0.32;;
36725;SDS011;44936;52.086;5.150;2022-09-03T11:26:24;0.30;;;0.30;;
36725;SDS011;44936;52.086;5.150;2022-09-03T11:34:11;0.93;;;0.38;;
36725;SDS011;44936;52.086;5.150;2022-09-03T11:36:38;0.50;;;0.40;;
36725;SDS011;44936;52.086;5.150;2022-09-03T11:42:01;0.50;;;0.30;;
36725;SDS011;44936;52.086;5.150;2022-09-03T11:46:58;0.65;;;0.25;;
36725;SDS011;44936;52.086;5.150;2022-09-03T11:49:26;0.30;;;0.30;;
36725;SDS011;44936;52.086;5.150;2022-09-03T11:51:57;1.98;;;0.40;;
36725;SDS011;44936;52.086;5.150;2022-09-03T11:54:23;0.20;;;0.20;;
36725;SDS011;44936;52.086;5.150;2022-09-03T11:56:50;0.60;;;0.47;;
36725;SDS011;44936;52.086;5.150;2022-09-03T11:59:17;3.40;;;0.57;;
36725;SDS011;44936;52.086;5.150;2022-09-03T12:01:46;0.38;;;0.38;;
36725;SDS011;44936;52.086;5.150;2022-09-03T12:04:16;0.70;;;0.30;;
36725;SDS011;44936;52.086;5.150;2022-09-03T12:19:03;0.35;;;0.35;;
36725;SDS011;44936;52.086;5.150;2022-09-03T12:21:35;1.33;;;0.63;;
36725;SDS011;44936;52.086;5.150;2022-09-03T12:24:01;0.30;;;0.30;;
36725;SDS011;44936;52.086;5.150;2022-09-03T12:26:26;2.42;;;0.30;;
36725;SDS011;44936;52.086;5.150;2022-09-03T12:28:53;0.73;;;0.20;;
36725;SDS011;44936;52.086;5.150;2022-09-03T12:31:29;1.30;;;0.47;;
36725;SDS011;44936;52.086;5.150;2022-09-03T12:33:55;0.52;;;0.40;;
36725;SDS011;44936;52.086;5.150;2022-09-03T12:36:23;0.30;;;0.20;;
36725;SDS011;44936;52.086;5.150;2022-09-03T12:38:48;0.40;;;0.40;;
36725;SDS011;44936;52.086;5.150;2022-09-03T12:41:27;0.45;;;0.45;;
36725;SDS011;44936;52.086;5.150;2022-09-03T12:43:54;0.50;;;0.43;;
36725;SDS011;44936;52.086;5.150;2022-09-03T12:46:24;4.97;;;0.40;;
36725;SDS011;44936;52.086;5.150;2022-09-03T12:48:56;0.57;;;0.38;;
36725;SDS011;44936;52.086;5.150;2022-09-03T12:51:29;0.73;;;0.60;;
36725;SDS011;44936;52.086;5.150;2022-09-03T12:53:55;1.10;;;0.30;;
36725;SDS011;44936;52.086;5.150;2022-09-03T12:56:20;0.67;;;0.40;;
36725;SDS011;44936;52.086;5.150;2022-09-03T12:58:50;0.50;;;0.50;;
36725;SDS011;44936;52.086;5.150;2022-09-03T13:01:19;0.38;;;0.38;;
36725;SDS011;44936;52.086;5.150;2022-09-03T13:06:11;0.83;;;0.70;;
36725;SDS011;44936;52.086;5.150;2022-09-03T13:08:40;0.43;;;0.43;;
36725;SDS011;44936;52.086;5.150;2022-09-03T13:11:08;0.52;;;0.40;;
36725;SDS011;44936;52.086;5.150;2022-09-03T13:13:34;4.43;;;0.60;;
36725;SDS011;44936;52.086;5.150;2022-09-03T13:18:28;0.77;;;0.50;;
36725;SDS011;44936;52.086;5.150;2022-09-03T13:21:14;0.32;;;0.32;;
36725;SDS011;44936;52.086;5.150;2022-09-03T13:23:54;0.55;;;0.30;;
36725;SDS011;44936;52.086;5.150;2022-09-03T13:29:28;0.35;;;0.35;;
36725;SDS011;44936;52.086;5.150;2022-09-03T13:32:02;0.80;;;0.40;;
36725;SDS011;44936;52.086;5.150;2022-09-03T13:34:36;0.90;;;0.50;;
36725;SDS011;44936;52.086;5.150;2022-09-03T13:39:36;0.40;;;0.40;;
36725;SDS011;44936;52.086;5.150;2022-09-03T13:42:17;0.98;;;0.50;;
36725;SDS011;44936;52.086;5.150;2022-09-03T13:44:48;0.40;;;0.40;;
36725;SDS011;44936;52.086;5.150;2022-09-03T13:49:56;1.00;;;0.40;;
36725;SDS011;44936;52.086;5.150;2022-09-03T13:52:47;0.55;;;0.35;;
36725;SDS011;44936;52.086;5.150;2022-09-03T13:55:20;1.08;;;0.45;;
36725;SDS011;44936;52.086;5.150;2022-09-03T13:57:55;0.77;;;0.65;;
36725;SDS011;44936;52.086;5.150;2022-09-03T14:00:45;0.68;;;0.45;;
36725;SDS011;44936;52.086;5.150;2022-09-03T14:03:24;1.20;;;1.20;;
36725;SDS011;44936;52.086;5.150;2022-09-03T14:16:23;0.85;;;0.45;;
36725;SDS011;44936;52.086;5.150;2022-09-03T14:18:55;0.52;;;0.52;;
36725;SDS011;44936;52.086;5.150;2022-09-03T14:21:29;0.67;;;0.50;;
36725;SDS011;44936;52.086;5.150;2022-09-03T14:24:10;1.08;;;0.50;;
36725;SDS011;44936;52.086;5.150;2022-09-03T14:26:47;1.02;;;0.30;;
36725;SDS011;44936;52.086;5.150;2022-09-03T14:29:14;0.52;;;0.47;;
36725;SDS011;44936;52.086;5.150;2022-09-03T14:36:44;1.90;;;0.60;;
36725;SDS011;44936;52.086;5.150;2022-09-03T14:44:06;0.40;;;0.40;;
36725;SDS011;44936;52.086;5.150;2022-09-03T15:01:53;0.40;;;0.40;;
36725;SDS011;44936;52.086;5.150;2022-09-03T15:09:34;0.40;;;0.40;;
36725;SDS011;44936;52.086;5.150;2022-09-03T15:14:39;0.40;;;0.40;;
36725;SDS011;44936;52.086;5.150;2022-09-03T15:20:06;1.95;;;0.50;;
36725;SDS011;44936;52.086;5.150;2022-09-03T15:23:16;0.55;;;0.47;;
36725;SDS011;44936;52.086;5.150;2022-09-03T15:28:15;0.47;;;0.40;;
36725;SDS011;44936;52.086;5.150;2022-09-03T15:30:52;0.35;;;0.35;;
36725;SDS011;44936;52.086;5.150;2022-09-03T15:33:41;0.63;;;0.60;;
36725;SDS011;44936;52.086;5.150;2022-09-03T15:36:34;0.98;;;0.57;;
36725;SDS011;44936;52.086;5.150;2022-09-03T15:39:01;1.05;;;0.55;;
36725;SDS011;44936;52.086;5.150;2022-09-03T15:41:47;0.52;;;0.50;;
36725;SDS011;44936;52.086;5.150;2022-09-03T15:44:15;1.05;;;0.60;;
36725;SDS011;44936;52.086;5.150;2022-09-03T15:46:46;0.70;;;0.40;;
36725;SDS011;44936;52.086;5.150;2022-09-03T15:49:33;0.55;;;0.47;;
36725;SDS011;44936;52.086;5.150;2022-09-03T15:57:19;0.52;;;0.52;;
36725;SDS011;44936;52.086;5.150;2022-09-03T16:07:26;1.08;;;0.35;;
36725;SDS011;44936;52.086;5.150;2022-09-03T16:12:46;1.08;;;0.60;;
36725;SDS011;44936;52.086;5.150;2022-09-03T16:15:19;1.23;;;0.57;;
36725;SDS011;44936;52.086;5.150;2022-09-03T16:20:44;0.50;;;0.47;;
36725;SDS011;44936;52.086;5.150;2022-09-03T16:28:36;0.98;;;0.60;;
36725;SDS011;44936;52.086;5.150;2022-09-03T16:31:07;2.72;;;0.60;;
36725;SDS011;44936;52.086;5.150;2022-09-03T16:38:53;1.08;;;0.60;;
36725;SDS011;44936;52.086;5.150;2022-09-03T16:41:33;1.05;;;0.47;;
36725;SDS011;44936;52.086;5.150;2022-09-03T16:44:02;1.08;;;0.70;;
36725;SDS011;44936;52.086;5.150;2022-09-03T16:46:35;1.17;;;0.65;;
36725;SDS011;44936;52.086;5.150;2022-09-03T16:49:17;1.17;;;0.55;;
36725;SDS011;44936;52.086;5.150;2022-09-03T16:51:53;0.70;;;0.60;;
36725;SDS011;44936;52.086;5.150;2022-09-03T16:57:21;0.45;;;0.45;;
36725;SDS011;44936;52.086;5.150;2022-09-03T17:18:03;1.07;;;0.57;;
36725;SDS011;44936;52.086;5.150;2022-09-03T17:25:28;0.57;;;0.52;;
36725;SDS011;44936;52.086;5.150;2022-09-03T17:28:12;1.73;;;0.77;;
36725;SDS011;44936;52.086;5.150;2022-09-03T17:31:04;1.05;;;0.60;;
36725;SDS011;44936;52.086;5.150;2022-09-03T17:36:11;1.17;;;1.00;;
36725;SDS011;44936;52.086;5.150;2022-09-03T17:46:56;1.67;;;1.38;;
36725;SDS011;44936;52.086;5.150;2022-09-03T17:48:55;1.17;;;0.98;;
36725;SDS011;44936;52.086;5.150;2022-09-03T17:51:31;0.85;;;0.85;;
36725;SDS011;44936;52.086;5.150;2022-09-03T17:54:05;3.40;;;1.85;;
36725;SDS011;44936;52.086;5.150;2022-09-03T17:56:38;1.23;;;1.10;;
36725;SDS011;44936;52.086;5.150;2022-09-03T17:59:09;1.10;;;1.00;;
36725;SDS011;44936;52.086;5.150;2022-09-03T18:01:36;1.00;;;0.90;;
36725;SDS011;44936;52.086;5.150;2022-09-03T18:12:08;1.10;;;1.10;;
36725;SDS011;44936;52.086;5.150;2022-09-03T18:19:49;2.60;;;1.20;;
36725;SDS011;44936;52.086;5.150;2022-09-03T18:25:25;2.70;;;1.40;;
36725;SDS011;44936;52.086;5.150;2022-09-03T18:28:11;2.40;;;1.40;;
36725;SDS011;44936;52.086;5.150;2022-09-03T18:30:56;2.55;;;1.48;;
36725;SDS011;44936;52.086;5.150;2022-09-03T18:33:40;2.05;;;1.45;;
36725;SDS011;44936;52.086;5.150;2022-09-03T18:36:24;2.20;;;1.90;;
36725;SDS011;44936;52.086;5.150;2022-09-03T18:39:20;3.08;;;1.48;;
36725;SDS011;44936;52.086;5.150;2022-09-03T18:45:30;1.23;;;1.13;;
36725;SDS011;44936;52.086;5.150;2022-09-03T18:48:38;1.60;;;1.08;;
36725;SDS011;44936;52.086;5.150;2022-09-03T18:54:19;1.40;;;1.30;;
36725;SDS011;44936;52.086;5.150;2022-09-03T18:57:06;1.25;;;1.15;;
36725;SDS011;44936;52.086;5.150;2022-09-03T19:00:05;3.40;;;1.40;;
36725;SDS011;44936;52.086;5.150;2022-09-03T19:11:27;2.08;;;1.38;;
36725;SDS011;44936;52.086;5.150;2022-09-03T19:14:14;3.05;;;1.35;;
36725;SDS011;44936;52.086;5.150;2022-09-03T19:17:11;1.38;;;1.27;;
36725;SDS011;44936;52.086;5.150;2022-09-03T19:20:40;3.42;;;1.10;;
36725;SDS011;44936;52.086;5.150;2022-09-03T19:23:04;3.20;;;1.63;;
36725;SDS011;44936;52.086;5.150;2022-09-03T19:25:48;2.05;;;1.40;;
36725;SDS011;44936;52.086;5.150;2022-09-03T19:28:33;3.05;;;1.42;;
36725;SDS011;44936;52.086;5.150;2022-09-03T19:40:15;3.15;;;1.52;;
36725;SDS011;44936;52.086;5.150;2022-09-03T19:49:08;1.63;;;1.15;;